createdAt,value
2023-05-09T00:01:22.931Z,67.60
2023-05-09T00:03:52.194Z,67.97
2023-05-09T00:06:19.943Z,68.14
2023-05-09T00:08:47.055Z,67.89
2023-05-09T00:11:13.861Z,68.29
2023-05-09T00:13:41.957Z,68.33
2023-05-09T00:16:09.318Z,68.18
2023-05-09T00:18:37.589Z,68.04
2023-05-09T00:21:05.241Z,68.29
2023-05-09T00:23:32.039Z,68.10
2023-05-09T00:25:59.532Z,67.65
2023-05-09T00:28:26.782Z,68.11
2023-05-09T00:30:53.843Z,68.61
2023-05-09T00:33:20.833Z,68.67
2023-05-09T00:35:47.831Z,68.85
2023-05-09T00:38:15.178Z,69.26
2023-05-09T00:40:42.004Z,69.50
2023-05-09T00:43:08.871Z,69.17
2023-05-09T00:45:35.784Z,70.02
2023-05-09T00:48:03.316Z,69.65
2023-05-09T00:50:31.141Z,69.62
2023-05-09T00:52:58.744Z,70.07
2023-05-09T00:55:27.331Z,70.03
2023-05-09T00:57:54.074Z,70.47
2023-05-09T01:00:21.550Z,70.76
2023-05-09T01:02:53.469Z,70.56
2023-05-09T01:05:21.617Z,70.92
2023-05-09T01:08:00.627Z,71.03
2023-05-09T01:10:42.429Z,70.85
2023-05-09T01:13:15.081Z,71.08
2023-05-09T01:16:06.248Z,71.85
2023-05-09T01:18:57.008Z,71.48
2023-05-09T01:21:30.553Z,72.27
2023-05-09T01:24:00.815Z,72.11
2023-05-09T01:26:52.341Z,71.95
2023-05-09T01:29:36.640Z,72.38
2023-05-09T01:32:10.010Z,72.57
2023-05-09T01:34:38.878Z,72.56
2023-05-09T01:37:07.474Z,72.61
2023-05-09T01:39:38.586Z,72.46
2023-05-09T01:42:08.830Z,73.17
2023-05-09T01:44:42.589Z,73.01
2023-05-09T01:47:10.916Z,73.33
2023-05-09T01:49:40.215Z,73.17
2023-05-09T01:52:16.918Z,73.50
2023-05-09T01:54:45.951Z,73.29
2023-05-09T01:57:13.699Z,73.25
2023-05-09T01:59:43.137Z,73.36
2023-05-09T02:02:10.462Z,73.10
2023-05-09T02:04:39.383Z,73.45
2023-05-09T02:07:07.595Z,72.91
2023-05-09T02:09:34.853Z,73.52
2023-05-09T02:12:02.218Z,74.01
2023-05-09T02:14:29.887Z,73.65
2023-05-09T02:16:56.867Z,73.95
2023-05-09T02:19:24.310Z,73.98
2023-05-09T02:21:51.212Z,74.24
2023-05-09T02:24:18.135Z,74.23
2023-05-09T02:26:45.573Z,74.57
2023-05-09T02:29:12.921Z,74.54
2023-05-09T02:31:41.546Z,74.50
2023-05-09T02:34:09.800Z,74.60
2023-05-09T02:36:37.946Z,74.64
2023-05-09T02:39:05.030Z,74.61
2023-05-09T02:41:31.985Z,74.89
2023-05-09T02:43:58.866Z,74.62
2023-05-09T02:46:26.187Z,74.46
2023-05-09T02:48:53.583Z,74.62
2023-05-09T02:51:20.444Z,74.82
2023-05-09T02:53:47.267Z,74.94
2023-05-09T02:56:14.315Z,75.06
2023-05-09T02:58:41.256Z,74.80
2023-05-09T03:01:09.860Z,75.24
2023-05-09T03:03:38.345Z,75.18
2023-05-09T03:06:06.481Z,74.94
2023-05-09T03:08:33.454Z,75.04
2023-05-09T03:11:00.856Z,74.81
2023-05-09T03:13:28.289Z,74.42
2023-05-09T03:15:57.122Z,74.24
2023-05-09T03:18:24.229Z,74.42
2023-05-09T03:20:51.562Z,73.69
2023-05-09T03:23:19.229Z,73.45
2023-05-09T03:25:46.041Z,73.64
2023-05-09T03:28:12.804Z,73.30
2023-05-09T03:30:39.986Z,73.13
2023-05-09T03:33:10.633Z,73.19
2023-05-09T03:35:37.400Z,72.66
2023-05-09T03:38:05.794Z,73.09
2023-05-09T03:40:32.804Z,72.94
2023-05-09T03:43:06.572Z,72.80
2023-05-09T03:45:33.604Z,72.57
2023-05-09T03:48:01.181Z,72.52
2023-05-09T03:50:29.395Z,72.46
2023-05-09T03:52:58.101Z,71.99
2023-05-09T03:55:26.304Z,71.98
2023-05-09T03:57:54.044Z,71.93
2023-05-09T04:00:22.757Z,71.86
2023-05-09T04:03:00.629Z,71.56
2023-05-09T04:05:36.299Z,71.39
2023-05-09T04:08:05.264Z,71.89
2023-05-09T04:10:32.850Z,71.03
2023-05-09T04:12:59.896Z,71.11
2023-05-09T04:15:26.785Z,70.98
2023-05-09T04:17:54.302Z,70.65
2023-05-09T04:20:21.183Z,70.37
2023-05-09T04:22:48.127Z,71.05
2023-05-09T04:25:17.120Z,70.85
2023-05-09T04:27:45.581Z,71.08
2023-05-09T04:30:12.947Z,71.01
2023-05-09T04:32:40.636Z,71.44
2023-05-09T04:35:09.130Z,71.01
2023-05-09T04:37:40.282Z,70.72
2023-05-09T04:40:09.411Z,70.89
2023-05-09T04:42:46.886Z,70.71
2023-05-09T04:45:16.493Z,70.95
2023-05-09T04:47:44.343Z,71.22
2023-05-09T04:50:11.765Z,70.93
2023-05-09T04:52:38.736Z,70.90
2023-05-09T04:55:06.528Z,71.10
2023-05-09T04:57:41.812Z,71.05
2023-05-09T05:00:11.731Z,70.93
2023-05-09T05:02:39.572Z,71.33
2023-05-09T05:05:12.215Z,71.13
2023-05-09T05:07:42.537Z,70.88
2023-05-09T05:10:11.575Z,71.21
2023-05-09T05:12:41.126Z,71.07
2023-05-09T05:15:11.574Z,70.88
2023-05-09T05:17:39.629Z,70.99
2023-05-09T05:20:10.560Z,70.36
2023-05-09T05:22:41.672Z,70.20
2023-05-09T05:25:08.851Z,69.63
2023-05-09T05:27:36.960Z,69.91
2023-05-09T05:30:04.749Z,69.71
2023-05-09T05:32:31.879Z,69.47
2023-05-09T05:35:02.617Z,69.50
2023-05-09T05:37:29.801Z,68.83
2023-05-09T05:39:56.893Z,68.83
2023-05-09T05:42:25.191Z,68.62
2023-05-09T05:44:51.996Z,67.99
2023-05-09T05:47:18.856Z,67.88
2023-05-09T05:49:46.293Z,67.49
2023-05-09T05:52:13.261Z,67.34
2023-05-09T05:54:40.702Z,67.18
2023-05-09T05:57:08.351Z,67.14
2023-05-09T05:59:36.538Z,66.58
2023-05-09T06:02:03.512Z,66.24
2023-05-09T06:04:31.126Z,66.17
2023-05-09T06:06:59.211Z,66.12
2023-05-09T06:09:27.347Z,65.22
2023-05-09T06:11:54.427Z,65.15
2023-05-09T06:14:21.328Z,65.55
2023-05-09T06:16:48.690Z,65.91
2023-05-09T06:19:15.761Z,65.76
2023-05-09T06:21:42.987Z,66.28
2023-05-09T06:24:14.420Z,66.23
2023-05-09T06:26:51.250Z,66.05
2023-05-09T06:29:18.095Z,66.10
2023-05-09T06:31:45.575Z,66.32
2023-05-09T06:34:12.555Z,65.85
2023-05-09T06:36:39.469Z,65.09
2023-05-09T06:39:06.387Z,64.97
2023-05-09T06:41:33.257Z,64.46
2023-05-09T06:44:02.708Z,64.54
2023-05-09T06:46:29.803Z,64.29
2023-05-09T06:48:56.937Z,64.19
2023-05-09T06:51:25.060Z,64.51
2023-05-09T06:53:55.648Z,64.50
2023-05-09T06:56:23.303Z,65.17
2023-05-09T06:58:50.522Z,64.88
2023-05-09T07:01:17.886Z,65.44
2023-05-09T07:03:47.918Z,65.15
2023-05-09T07:06:14.836Z,65.14
2023-05-09T07:08:41.763Z,64.97
2023-05-09T07:11:08.951Z,65.16
2023-05-09T07:13:36.707Z,64.69
2023-05-09T07:16:04.794Z,64.45
2023-05-09T07:18:31.848Z,64.33
2023-05-09T07:21:00.414Z,64.33
2023-05-09T07:23:27.453Z,64.18
2023-05-09T07:25:58.891Z,63.17
2023-05-09T07:28:26.134Z,62.71
2023-05-09T07:30:55.888Z,61.93
2023-05-09T07:33:23.993Z,60.80
2023-05-09T07:35:53.301Z,59.63
2023-05-09T07:38:20.356Z,58.75
2023-05-09T07:40:47.527Z,58.98
2023-05-09T07:43:18.170Z,58.86
2023-05-09T07:45:47.438Z,59.18
2023-05-09T07:48:18.401Z,59.49
2023-05-09T07:50:45.456Z,58.62
2023-05-09T07:53:12.261Z,58.10
2023-05-09T07:55:39.026Z,58.47
2023-05-09T07:58:06.080Z,58.37
2023-05-09T08:00:36.188Z,58.46
2023-05-09T08:03:03.510Z,58.90
2023-05-09T08:05:30.903Z,59.35
2023-05-09T08:07:57.834Z,59.39
2023-05-09T08:10:25.052Z,59.70
2023-05-09T08:12:52.464Z,60.00
2023-05-09T08:15:19.315Z,59.22
2023-05-09T08:17:46.617Z,56.60
2023-05-09T08:20:13.916Z,56.06
2023-05-09T08:22:44.782Z,56.50
2023-05-09T08:25:25.261Z,57.42
2023-05-09T08:27:53.200Z,57.69
2023-05-09T08:30:20.934Z,57.35
2023-05-09T08:32:47.796Z,57.31
2023-05-09T08:35:14.913Z,57.65
2023-05-09T08:37:42.238Z,57.94
2023-05-09T08:40:10.224Z,57.81
2023-05-09T08:42:40.779Z,57.92
2023-05-09T08:45:10.855Z,57.61
2023-05-09T08:47:39.312Z,57.01
2023-05-09T08:50:08.093Z,57.59
2023-05-09T08:52:38.685Z,57.42
2023-05-09T08:55:09.701Z,58.36
2023-05-09T08:57:37.256Z,58.36
2023-05-09T09:00:06.576Z,58.63
2023-05-09T09:02:34.243Z,59.00
2023-05-09T09:05:02.972Z,58.95
2023-05-09T09:07:31.334Z,59.16
2023-05-09T09:09:59.652Z,59.14
2023-05-09T09:12:26.773Z,58.28
2023-05-09T09:14:56.181Z,58.08
2023-05-09T09:17:28.142Z,58.09
2023-05-09T09:19:59.856Z,58.28
2023-05-09T09:22:33.835Z,57.80
2023-05-09T09:25:02.049Z,57.53
2023-05-09T09:27:28.975Z,58.37
2023-05-09T09:29:56.092Z,58.85
2023-05-09T09:32:34.188Z,57.96
2023-05-09T09:35:07.195Z,57.27
2023-05-09T09:37:35.785Z,57.02
2023-05-09T09:40:03.804Z,57.22
2023-05-09T09:42:44.919Z,57.24
2023-05-09T09:45:13.842Z,57.89
2023-05-09T09:47:43.074Z,58.07
2023-05-09T09:50:15.535Z,58.78
2023-05-09T09:52:54.140Z,59.63
2023-05-09T09:55:22.475Z,59.31
2023-05-09T09:57:49.383Z,59.62
2023-05-09T10:00:18.364Z,59.42
2023-05-09T10:02:56.130Z,59.54
2023-05-09T10:05:28.517Z,59.29
2023-05-09T10:08:00.086Z,58.65
2023-05-09T10:10:31.509Z,57.96
2023-05-09T10:13:09.572Z,56.08
2023-05-09T10:15:49.039Z,54.07
2023-05-09T10:18:19.990Z,51.71
2023-05-09T10:20:47.286Z,48.32
2023-05-09T10:23:16.670Z,45.10
2023-05-09T10:26:03.209Z,42.25
2023-05-09T10:28:34.332Z,39.36
2023-05-09T10:31:13.275Z,37.21
2023-05-09T10:33:51.063Z,38.48
2023-05-09T10:36:23.900Z,40.45
2023-05-09T10:38:54.196Z,39.61
2023-05-09T10:41:25.644Z,37.91
2023-05-09T10:43:53.092Z,37.01
2023-05-09T10:46:24.048Z,38.79
2023-05-09T10:48:51.290Z,41.28
2023-05-09T10:51:18.602Z,42.49
2023-05-09T10:53:48.053Z,42.43
2023-05-09T10:56:35.776Z,44.02
2023-05-09T10:59:02.979Z,44.22
2023-05-09T11:01:39.026Z,44.31
2023-05-09T11:04:14.605Z,40.98
2023-05-09T11:06:45.345Z,40.85
2023-05-09T11:09:34.726Z,41.09
2023-05-09T11:12:10.135Z,40.75
2023-05-09T11:14:45.578Z,41.80
2023-05-09T11:17:36.337Z,41.01
2023-05-09T11:20:05.896Z,42.65
2023-05-09T11:22:41.407Z,42.36
2023-05-09T11:25:09.312Z,44.04
2023-05-09T11:27:41.118Z,43.43
2023-05-09T11:30:09.018Z,44.08
2023-05-09T11:32:58.913Z,44.01
2023-05-09T11:35:28.942Z,43.56
2023-05-09T11:38:05.671Z,43.49
2023-05-09T11:40:34.019Z,43.60
2023-05-09T11:43:01.765Z,43.36
2023-05-09T11:45:31.272Z,43.39
2023-05-09T11:47:58.796Z,44.07
2023-05-09T11:50:25.821Z,45.32
2023-05-09T11:52:53.574Z,45.71
2023-05-09T11:55:30.242Z,46.33
2023-05-09T11:57:57.418Z,50.74
2023-05-09T12:00:26.271Z,54.02
2023-05-09T12:02:53.722Z,57.00
2023-05-09T12:05:22.855Z,60.81
2023-05-09T12:07:50.332Z,63.38
2023-05-09T12:10:20.457Z,63.14
2023-05-09T12:12:49.839Z,63.99
2023-05-09T12:15:17.665Z,64.58
2023-05-09T12:17:47.122Z,64.38
2023-05-09T12:20:15.144Z,62.56
2023-05-09T12:22:53.488Z,60.02
2023-05-09T12:25:20.256Z,56.77
2023-05-09T12:27:47.047Z,55.48
2023-05-09T12:30:16.154Z,55.02
2023-05-09T12:32:43.875Z,54.10
2023-05-09T12:35:11.310Z,53.70
2023-05-09T12:37:38.597Z,54.43
2023-05-09T12:40:13.071Z,54.33
2023-05-09T12:42:44.096Z,53.56
2023-05-09T12:45:11.581Z,52.66
2023-05-09T12:47:39.156Z,51.55
2023-05-09T12:50:07.171Z,50.23
2023-05-09T12:52:41.653Z,50.32
2023-05-09T12:55:15.306Z,50.12
2023-05-09T12:57:42.954Z,49.65
2023-05-09T13:00:12.106Z,48.97
2023-05-09T13:02:42.077Z,48.79
2023-05-09T13:05:10.822Z,49.20
2023-05-09T13:07:52.794Z,48.78
2023-05-09T13:10:24.253Z,49.77
2023-05-09T13:12:52.064Z,49.78
2023-05-09T13:15:21.054Z,49.25
2023-05-09T13:17:52.082Z,48.39
2023-05-09T13:20:19.878Z,47.64
2023-05-09T13:22:46.862Z,48.24
2023-05-09T13:25:13.853Z,47.90
2023-05-09T13:27:40.649Z,47.74
2023-05-09T13:30:08.493Z,48.01
2023-05-09T13:32:36.597Z,47.72
2023-05-09T13:35:06.759Z,47.64
2023-05-09T13:37:36.394Z,47.63
2023-05-09T13:40:04.376Z,47.20
2023-05-09T13:42:31.235Z,46.40
2023-05-09T13:44:58.021Z,46.22
2023-05-09T13:47:24.999Z,45.42
2023-05-09T13:49:52.286Z,45.34
2023-05-09T13:52:19.435Z,46.09
2023-05-09T13:54:46.533Z,46.21
2023-05-09T13:57:13.400Z,47.19
2023-05-09T13:59:43.506Z,46.78
2023-05-09T14:02:13.157Z,47.61
2023-05-09T14:04:39.994Z,48.14
2023-05-09T14:07:09.425Z,48.74
2023-05-09T14:09:39.987Z,48.43
2023-05-09T14:12:07.053Z,48.32
2023-05-09T14:14:34.037Z,49.24
2023-05-09T14:17:01.410Z,49.31
2023-05-09T14:19:30.323Z,49.93
2023-05-09T14:21:59.598Z,50.57
2023-05-09T14:24:26.400Z,50.84
2023-05-09T14:26:53.156Z,50.12
2023-05-09T14:29:19.974Z,50.87
2023-05-09T14:31:46.643Z,50.68
2023-05-09T14:34:13.290Z,50.74
2023-05-09T14:36:40.181Z,50.61
2023-05-09T14:39:07.492Z,50.34
2023-05-09T14:41:34.196Z,51.16
2023-05-09T14:44:00.968Z,50.65
2023-05-09T14:46:27.955Z,50.85
2023-05-09T14:48:54.752Z,51.27
2023-05-09T14:51:21.834Z,51.06
2023-05-09T14:53:48.570Z,50.51
2023-05-09T14:56:15.513Z,51.14
2023-05-09T14:58:42.491Z,51.16
2023-05-09T15:01:09.258Z,51.18
2023-05-09T15:03:36.159Z,50.89
2023-05-09T15:06:04.312Z,50.49
2023-05-09T15:08:31.387Z,50.76
2023-05-09T15:10:58.106Z,50.68
2023-05-09T15:13:32.606Z,50.04
2023-05-09T15:16:02.690Z,49.96
2023-05-09T15:18:49.860Z,50.15
2023-05-09T15:21:23.770Z,50.35
2023-05-09T15:23:53.845Z,50.43
2023-05-09T15:26:21.383Z,50.22
2023-05-09T15:28:48.965Z,50.63
2023-05-09T15:31:17.616Z,50.88
2023-05-09T15:36:39.514Z,50.05
2023-05-09T15:39:12.263Z,49.42
2023-05-09T15:41:39.764Z,49.26
2023-05-09T15:44:10.111Z,48.93
2023-05-09T15:46:43.142Z,49.55
2023-05-09T15:49:11.592Z,49.09
2023-05-09T15:51:42.449Z,49.10
2023-05-09T15:54:09.805Z,49.11
2023-05-09T15:56:42.567Z,48.68
2023-05-09T15:59:17.381Z,49.54
2023-05-09T16:01:44.513Z,49.51
2023-05-09T16:04:33.301Z,50.01
2023-05-09T16:07:09.209Z,50.09
2023-05-09T16:09:39.837Z,50.28
2023-05-09T16:12:12.988Z,50.54
2023-05-09T16:14:47.654Z,50.24
2023-05-09T16:17:16.639Z,50.42
2023-05-09T16:19:53.569Z,50.87
2023-05-09T16:22:28.184Z,51.37
2023-05-09T16:24:58.336Z,51.19
2023-05-09T16:27:32.407Z,50.86
2023-05-09T16:30:02.232Z,51.76
2023-05-09T16:32:32.736Z,51.96
2023-05-09T16:35:18.449Z,52.28
2023-05-09T16:37:48.615Z,51.89
2023-05-09T16:40:17.960Z,52.51
2023-05-09T16:42:47.601Z,52.29
2023-05-09T16:45:19.078Z,52.60
2023-05-09T16:47:49.323Z,53.42
2023-05-09T16:50:19.751Z,53.47
2023-05-09T16:53:02.141Z,53.67
2023-05-09T16:55:34.577Z,53.96
2023-05-09T16:58:09.756Z,54.02
2023-05-09T17:00:43.169Z,54.44
2023-05-09T17:03:19.315Z,53.91
2023-05-09T17:06:17.960Z,54.40
2023-05-09T17:08:56.149Z,54.22
2023-05-09T17:11:30.892Z,54.34
2023-05-09T17:14:20.052Z,54.52
2023-05-09T17:17:00.999Z,54.32
2023-05-09T17:19:31.980Z,54.64
2023-05-09T17:22:09.220Z,54.94
2023-05-09T17:24:47.095Z,54.58
2023-05-09T17:27:37.127Z,54.39
2023-05-09T17:30:16.107Z,55.35
2023-05-09T17:32:49.148Z,55.48
2023-05-09T17:38:11.002Z,55.42
2023-05-09T17:40:54.012Z,56.12
2023-05-09T17:43:25.051Z,56.60
2023-05-09T17:45:55.325Z,56.96
2023-05-09T17:48:23.486Z,57.70
2023-05-09T17:50:51.291Z,58.46
2023-05-09T17:53:18.898Z,59.29
2023-05-09T17:55:46.027Z,59.48
2023-05-09T17:58:15.061Z,60.15
2023-05-09T18:00:42.252Z,60.78
2023-05-09T18:03:09.346Z,61.05
2023-05-09T18:05:36.245Z,61.32
2023-05-09T18:08:06.623Z,61.90
2023-05-09T18:10:33.336Z,62.61
2023-05-09T18:13:12.420Z,63.87
2023-05-09T18:15:39.319Z,65.31
2023-05-09T18:18:09.868Z,66.96
2023-05-09T18:20:38.214Z,69.31
2023-05-09T18:23:10.819Z,70.73
2023-05-09T18:25:38.732Z,71.70
2023-05-09T18:28:05.571Z,72.71
2023-05-09T18:30:32.568Z,73.12
2023-05-09T18:33:01.554Z,73.36
2023-05-09T18:35:28.610Z,73.25
2023-05-09T18:37:58.459Z,72.31
2023-05-09T18:40:37.198Z,72.44
2023-05-09T18:45:57.204Z,72.45
2023-05-09T18:48:29.258Z,72.13
2023-05-09T18:50:56.462Z,72.60
2023-05-09T18:53:32.774Z,72.13
2023-05-09T18:56:26.602Z,72.10
2023-05-09T18:58:54.040Z,72.05
2023-05-09T19:01:24.556Z,71.26
2023-05-09T19:03:54.594Z,71.67
2023-05-09T19:06:22.265Z,71.51
2023-05-09T19:08:54.761Z,71.14
2023-05-09T19:11:22.401Z,70.95
2023-05-09T19:13:49.682Z,70.39
2023-05-09T19:16:36.514Z,70.68
2023-05-09T19:19:05.927Z,70.67
2023-05-09T19:21:34.304Z,70.75
2023-05-09T19:24:23.545Z,70.59
2023-05-09T19:26:59.839Z,70.55
2023-05-09T19:29:26.779Z,70.37
2023-05-09T19:32:04.338Z,70.70
2023-05-09T19:34:31.460Z,71.10
2023-05-09T19:36:58.242Z,71.08
2023-05-09T19:39:25.349Z,71.47
2023-05-09T19:41:52.391Z,71.44
2023-05-09T19:44:19.203Z,71.50
2023-05-09T19:46:46.533Z,71.39
2023-05-09T19:49:30.454Z,71.43
2023-05-09T19:51:57.487Z,71.31
2023-05-09T19:57:32.449Z,71.22
2023-05-09T19:59:59.472Z,71.71
2023-05-09T20:02:29.382Z,71.94
2023-05-09T20:05:02.152Z,71.26
2023-05-09T20:07:31.211Z,71.74
2023-05-09T20:09:58.025Z,71.87
2023-05-09T20:12:43.490Z,71.75
2023-05-09T20:15:15.481Z,71.85
2023-05-09T20:17:47.211Z,71.88
2023-05-09T20:20:14.242Z,72.27
2023-05-09T20:22:41.244Z,72.65
2023-05-09T20:25:08.312Z,72.69
2023-05-09T20:27:37.659Z,72.91
2023-05-09T20:30:05.184Z,72.92
2023-05-09T20:32:45.140Z,72.92
2023-05-09T20:35:12.297Z,73.06
2023-05-09T20:37:42.154Z,73.32
2023-05-09T20:40:14.685Z,73.29
2023-05-09T20:42:56.476Z,73.21
2023-05-09T20:45:34.235Z,72.92
2023-05-09T20:48:10.723Z,73.50
2023-05-09T20:50:37.700Z,73.04
2023-05-09T20:53:08.240Z,73.60
2023-05-09T20:55:38.063Z,73.41
2023-05-09T20:58:07.616Z,73.78
2023-05-09T21:00:35.909Z,74.27
2023-05-09T21:03:03.061Z,74.10
2023-05-09T21:05:30.052Z,74.25
2023-05-09T21:07:57.223Z,73.91
2023-05-09T21:10:24.292Z,74.14
2023-05-09T21:12:51.227Z,74.51
2023-05-09T21:15:18.248Z,74.66
2023-05-09T21:17:45.405Z,74.45
2023-05-09T21:20:14.980Z,73.89
2023-05-09T21:22:45.481Z,74.30
2023-05-09T21:25:12.716Z,74.14
2023-05-09T21:27:39.752Z,74.23
2023-05-09T21:30:07.830Z,74.33
2023-05-09T21:32:35.258Z,74.50
2023-05-09T21:35:04.203Z,74.74
2023-05-09T21:37:38.489Z,74.39
2023-05-09T21:40:06.599Z,74.14
2023-05-09T21:42:34.353Z,74.52
2023-05-09T21:45:01.632Z,74.48
2023-05-09T21:47:28.938Z,74.61
2023-05-09T21:49:57.330Z,74.04
2023-05-09T21:52:24.346Z,74.77
2023-05-09T21:54:51.411Z,75.55
2023-05-09T21:57:18.390Z,75.77
2023-05-09T21:59:45.327Z,76.34
2023-05-09T22:02:12.340Z,77.31
2023-05-09T22:04:40.252Z,77.85
2023-05-09T22:07:07.239Z,78.04
2023-05-09T22:09:34.088Z,78.21
2023-05-09T22:12:00.849Z,78.47
2023-05-09T22:14:27.762Z,78.96
2023-05-09T22:16:54.469Z,78.48
2023-05-09T22:19:21.363Z,78.49
2023-05-09T22:21:48.990Z,78.65
2023-05-09T22:24:16.190Z,78.86
2023-05-09T22:26:43.135Z,78.32
2023-05-09T22:29:10.154Z,78.53
2023-05-09T22:31:37.006Z,77.98
2023-05-09T22:34:03.950Z,77.23
2023-05-09T22:36:31.959Z,76.76
2023-05-09T22:38:58.633Z,76.65
2023-05-09T22:41:25.326Z,76.42
2023-05-09T22:43:52.026Z,76.00
2023-05-09T22:46:19.134Z,75.53
2023-05-09T22:48:48.273Z,75.49
2023-05-09T22:51:15.192Z,75.17
2023-05-09T22:53:41.951Z,74.55
2023-05-09T22:56:09.647Z,74.59
2023-05-09T22:58:36.672Z,74.50
2023-05-09T23:01:03.552Z,74.21
2023-05-09T23:03:30.659Z,74.11
2023-05-09T23:05:57.417Z,73.53
2023-05-09T23:08:24.217Z,73.84
2023-05-09T23:10:50.967Z,73.55
2023-05-09T23:13:17.843Z,73.72
2023-05-09T23:15:44.672Z,73.23
2023-05-09T23:18:12.233Z,73.57
2023-05-09T23:20:39.110Z,73.46
2023-05-09T23:23:06.102Z,73.15
2023-05-09T23:25:32.924Z,73.28
2023-05-09T23:27:59.754Z,73.27
2023-05-09T23:30:26.719Z,73.53
2023-05-09T23:32:53.830Z,73.24
2023-05-09T23:35:21.262Z,73.30
2023-05-09T23:37:48.534Z,73.17
2023-05-09T23:40:15.592Z,72.50
2023-05-09T23:42:42.816Z,72.88
2023-05-09T23:45:10.391Z,72.93
2023-05-09T23:47:37.239Z,72.90
2023-05-09T23:50:04.329Z,72.71
2023-05-09T23:52:31.657Z,72.73
2023-05-09T23:54:58.541Z,72.54
2023-05-09T23:57:27.706Z,72.51
2023-05-09T23:59:54.424Z,72.71
